createdAt,value
2023-01-11T00:00:38.489Z,6.80
2023-01-11T00:03:09.266Z,6.80
2023-01-11T00:05:43.113Z,6.80
2023-01-11T00:08:10.602Z,6.80
2023-01-11T00:10:37.706Z,6.80
2023-01-11T00:13:07.003Z,6.80
2023-01-11T00:15:36.003Z,6.80
2023-01-11T00:18:03.185Z,6.80
2023-01-11T00:20:29.763Z,6.90
2023-01-11T00:22:56.546Z,6.90
2023-01-11T00:25:23.368Z,6.90
2023-01-11T00:27:50.016Z,6.90
2023-01-11T00:30:17.516Z,6.90
2023-01-11T00:32:44.117Z,6.90
2023-01-11T00:35:10.974Z,6.90
2023-01-11T00:37:40.410Z,6.90
2023-01-11T00:40:08.168Z,7.00
2023-01-11T00:42:53.310Z,6.90
2023-01-11T00:45:38.591Z,6.90
2023-01-11T00:48:06.300Z,6.90
2023-01-11T00:50:40.256Z,6.90
2023-01-11T00:53:08.707Z,6.90
2023-01-11T00:55:35.881Z,6.90
2023-01-11T00:58:02.995Z,7.00
2023-01-11T01:00:30.027Z,7.00
2023-01-11T01:02:56.843Z,7.00
2023-01-11T01:05:23.577Z,7.00
2023-01-11T01:07:50.490Z,7.00
2023-01-11T01:10:20.039Z,6.90
2023-01-11T01:13:08.332Z,6.90
2023-01-11T01:15:35.477Z,6.90
2023-01-11T01:18:02.313Z,6.90
2023-01-11T01:20:29.062Z,6.90
2023-01-11T01:22:59.175Z,6.90
2023-01-11T01:25:29.818Z,6.90
2023-01-11T01:27:58.591Z,6.90
2023-01-11T01:30:26.345Z,6.90
2023-01-11T01:32:55.470Z,6.90
2023-01-11T01:35:24.331Z,6.90
2023-01-11T01:37:53.262Z,6.90
2023-01-11T01:40:22.016Z,6.90
2023-01-11T01:42:53.399Z,6.80
2023-01-11T01:45:28.105Z,6.80
2023-01-11T01:47:59.484Z,6.70
2023-01-11T01:50:37.494Z,6.70
2023-01-11T01:53:10.195Z,6.70
2023-01-11T01:55:45.183Z,6.70
2023-01-11T01:58:13.380Z,6.70
2023-01-11T02:00:48.651Z,6.70
2023-01-11T02:03:19.959Z,6.70
2023-01-11T02:05:47.953Z,6.70
2023-01-11T02:08:32.110Z,6.70
2023-01-11T02:10:59.556Z,6.70
2023-01-11T02:13:26.496Z,6.70
2023-01-11T02:16:06.748Z,6.70
2023-01-11T02:18:35.671Z,6.60
2023-01-11T02:21:26.256Z,6.60
2023-01-11T02:24:30.549Z,6.60
2023-01-11T02:27:11.869Z,6.60
2023-01-11T02:30:01.996Z,6.60
2023-01-11T02:32:39.361Z,6.60
2023-01-11T02:35:29.928Z,6.60
2023-01-11T02:38:09.119Z,6.60
2023-01-11T02:41:11.967Z,6.60
2023-01-11T02:44:19.134Z,6.60
2023-01-11T02:46:50.601Z,6.60
2023-01-11T02:49:54.098Z,6.60
2023-01-11T02:52:39.868Z,6.60
2023-01-11T02:55:14.560Z,6.50
2023-01-11T02:57:43.295Z,6.50
2023-01-11T03:00:14.626Z,6.50
2023-01-11T03:02:41.233Z,6.60
2023-01-11T03:05:15.071Z,6.60
2023-01-11T03:07:41.546Z,6.60
2023-01-11T03:10:20.441Z,6.60
2023-01-11T03:13:24.231Z,6.60
2023-01-11T03:16:02.785Z,6.60
2023-01-11T03:18:39.019Z,6.60
2023-01-11T03:21:32.382Z,6.60
2023-01-11T03:24:11.419Z,6.60
2023-01-11T03:26:40.979Z,6.60
2023-01-11T03:29:19.006Z,6.60
2023-01-11T03:32:03.945Z,6.60
2023-01-11T03:35:00.405Z,6.60
2023-01-11T03:37:35.371Z,6.60
2023-01-11T03:40:17.533Z,6.60
2023-01-11T03:43:07.815Z,6.60
2023-01-11T03:45:44.926Z,6.60
2023-01-11T03:48:34.313Z,6.70
2023-01-11T03:51:07.863Z,6.70
2023-01-11T03:53:37.550Z,6.70
2023-01-11T03:56:09.214Z,6.70
2023-01-11T03:58:38.655Z,6.80
2023-01-11T04:01:05.870Z,6.80
2023-01-11T04:03:32.705Z,6.80
2023-01-11T04:06:03.917Z,6.90
2023-01-11T04:08:31.167Z,6.90
2023-01-11T04:10:57.910Z,6.90
2023-01-11T04:13:24.664Z,6.90
2023-01-11T04:15:53.416Z,6.90
2023-01-11T04:18:20.053Z,6.90
2023-01-11T04:20:46.686Z,6.90
2023-01-11T04:23:14.425Z,6.90
2023-01-11T04:25:40.994Z,7.00
2023-01-11T04:28:07.598Z,6.90
2023-01-11T04:30:35.311Z,7.00
2023-01-11T04:33:02.178Z,7.00
2023-01-11T04:35:28.813Z,7.00
2023-01-11T04:37:56.095Z,7.00
2023-01-11T04:40:24.176Z,7.00
2023-01-11T04:42:50.750Z,7.00
2023-01-11T04:45:17.336Z,7.00
2023-01-11T04:47:44.075Z,7.00
2023-01-11T04:50:11.233Z,7.00
2023-01-11T04:52:42.893Z,7.00
2023-01-11T04:55:09.614Z,7.00
2023-01-11T04:57:36.334Z,7.10
2023-01-11T05:00:10.343Z,7.10
2023-01-11T05:02:37.836Z,7.10
2023-01-11T05:05:09.256Z,7.10
2023-01-11T05:07:36.753Z,7.10
2023-01-11T05:10:03.820Z,7.00
2023-01-11T05:12:32.911Z,7.00
2023-01-11T05:14:59.565Z,7.00
2023-01-11T05:17:26.176Z,7.00
2023-01-11T05:19:55.001Z,7.00
2023-01-11T05:22:26.522Z,7.00
2023-01-11T05:24:53.080Z,6.90
2023-01-11T05:27:21.955Z,6.90
2023-01-11T05:29:48.592Z,6.90
2023-01-11T05:32:17.733Z,6.90
2023-01-11T05:34:44.322Z,6.90
2023-01-11T05:37:10.938Z,6.80
2023-01-11T05:39:42.266Z,6.80
2023-01-11T05:42:09.168Z,6.80
2023-01-11T05:44:55.819Z,6.70
2023-01-11T05:47:23.469Z,6.80
2023-01-11T05:49:50.043Z,7.00
2023-01-11T05:52:18.526Z,7.10
2023-01-11T05:54:47.235Z,7.20
2023-01-11T05:57:13.787Z,7.30
2023-01-11T05:59:40.558Z,7.40
2023-01-11T06:02:07.298Z,7.70
2023-01-11T06:04:33.975Z,8.10
2023-01-11T06:07:00.693Z,8.40
2023-01-11T06:09:27.725Z,8.50
2023-01-11T06:11:54.442Z,8.80
2023-01-11T06:14:23.701Z,9.10
2023-01-11T06:16:56.139Z,9.20
2023-01-11T06:19:25.201Z,9.30
2023-01-11T06:21:51.811Z,9.50
2023-01-11T06:24:18.571Z,9.60
2023-01-11T06:26:46.443Z,9.70
2023-01-11T06:29:13.935Z,9.70
2023-01-11T06:31:40.577Z,9.70
2023-01-11T06:34:07.241Z,9.70
2023-01-11T06:36:33.917Z,9.80
2023-01-11T06:39:03.925Z,9.90
2023-01-11T06:41:30.876Z,9.90
2023-01-11T06:43:57.719Z,10.00
2023-01-11T06:46:24.410Z,10.00
2023-01-11T06:48:51.072Z,10.10
2023-01-11T06:51:20.245Z,10.10
2023-01-11T06:53:46.957Z,10.10
2023-01-11T06:56:15.914Z,10.20
2023-01-11T06:58:43.555Z,10.20
2023-01-11T07:01:11.626Z,10.30
2023-01-11T07:03:40.906Z,10.30
2023-01-11T07:06:07.776Z,10.30
2023-01-11T07:08:34.429Z,10.30
2023-01-11T07:11:01.055Z,10.40
2023-01-11T07:13:30.215Z,10.40
2023-01-11T07:16:00.578Z,10.40
2023-01-11T07:18:31.001Z,10.40
2023-01-11T07:20:57.730Z,10.50
2023-01-11T07:23:24.291Z,10.50
2023-01-11T07:25:51.024Z,10.50
2023-01-11T07:28:18.004Z,10.50
2023-01-11T07:30:57.467Z,10.50
2023-01-11T07:33:25.769Z,10.50
2023-01-11T07:35:52.859Z,10.50
2023-01-11T07:38:19.960Z,10.50
2023-01-11T07:40:46.663Z,10.60
2023-01-11T07:43:14.038Z,10.70
2023-01-11T07:45:48.310Z,10.70
2023-01-11T07:48:20.428Z,10.70
2023-01-11T07:50:49.885Z,10.70
2023-01-11T07:53:18.146Z,10.80
2023-01-11T07:55:47.399Z,10.70
2023-01-11T07:58:14.839Z,10.80
2023-01-11T08:00:41.840Z,10.70
2023-01-11T08:03:09.321Z,10.70
2023-01-11T08:05:38.746Z,10.60
2023-01-11T08:08:07.837Z,10.60
2023-01-11T08:10:34.646Z,10.50
2023-01-11T08:13:19.918Z,10.50
2023-01-11T08:15:46.538Z,10.50
2023-01-11T08:18:13.474Z,10.40
2023-01-11T08:20:40.506Z,10.40
2023-01-11T08:23:11.883Z,10.30
2023-01-11T08:25:38.564Z,10.30
2023-01-11T08:28:06.734Z,10.20
2023-01-11T08:30:36.926Z,10.20
2023-01-11T08:33:04.969Z,10.20
2023-01-11T08:35:37.452Z,10.10
2023-01-11T08:38:04.087Z,10.10
2023-01-11T08:40:30.864Z,10.10
2023-01-11T08:42:57.811Z,10.10
2023-01-11T08:45:28.828Z,10.00
2023-01-11T08:47:56.068Z,10.00
2023-01-11T08:50:24.999Z,10.00
2023-01-11T08:52:51.840Z,9.90
2023-01-11T08:55:21.312Z,9.90
2023-01-11T08:57:47.981Z,9.90
2023-01-11T09:00:15.285Z,9.90
2023-01-11T09:02:42.059Z,10.00
2023-01-11T09:05:14.246Z,10.20
2023-01-11T09:07:41.393Z,10.40
2023-01-11T09:10:08.677Z,10.80
2023-01-11T09:12:37.855Z,11.10
2023-01-11T09:15:05.154Z,11.30
2023-01-11T09:17:33.266Z,11.30
2023-01-11T09:19:59.948Z,11.40
2023-01-11T09:22:31.666Z,11.40
2023-01-11T09:24:59.430Z,11.40
2023-01-11T09:27:28.186Z,11.40
2023-01-11T09:29:55.062Z,11.50
2023-01-11T09:32:24.179Z,11.50
2023-01-11T09:35:01.147Z,11.50
2023-01-11T09:37:27.958Z,11.50
2023-01-11T09:39:54.700Z,11.50
2023-01-11T09:42:40.162Z,11.50
2023-01-11T09:45:27.039Z,11.50
2023-01-11T09:48:16.664Z,11.50
2023-01-11T09:50:47.022Z,11.50
2023-01-11T09:53:34.029Z,11.50
2023-01-11T09:56:07.005Z,11.50
2023-01-11T09:58:53.371Z,11.40
2023-01-11T10:01:42.218Z,11.50
2023-01-11T10:04:36.520Z,11.40
2023-01-11T10:07:20.219Z,11.50
2023-01-11T10:18:29.664Z,11.50
2023-01-11T10:19:35.061Z,11.40
2023-01-11T10:22:17.165Z,11.50
2023-01-11T10:24:49.508Z,11.50
2023-01-11T10:27:19.221Z,11.50
2023-01-11T10:29:53.246Z,11.50
2023-01-11T10:32:53.287Z,11.50
2023-01-11T10:35:58.237Z,11.50
2023-01-11T10:38:53.263Z,11.50
2023-01-11T10:41:29.419Z,11.50
2023-01-11T10:44:18.251Z,11.50
2023-01-11T10:46:49.238Z,11.50
2023-01-11T10:49:55.239Z,11.40
2023-01-11T10:52:27.880Z,11.40
2023-01-11T10:54:59.643Z,11.40
2023-01-11T10:58:01.813Z,11.40
2023-01-11T11:00:42.230Z,11.40
2023-01-11T11:03:20.646Z,11.40
2023-01-11T11:06:11.379Z,11.40
2023-01-11T11:08:57.993Z,11.40
2023-01-11T11:11:52.473Z,11.40
2023-01-11T11:14:23.799Z,11.40
2023-01-11T11:16:56.600Z,11.30
2023-01-11T11:19:31.436Z,11.40
2023-01-11T11:21:58.817Z,11.30
2023-01-11T11:24:36.870Z,11.30
2023-01-11T11:27:29.474Z,11.30
2023-01-11T11:29:56.628Z,11.30
2023-01-11T11:32:36.499Z,11.20
2023-01-11T11:35:33.529Z,11.20
2023-01-11T11:38:00.522Z,11.20
2023-01-11T11:40:33.946Z,11.10
2023-01-11T11:43:27.177Z,11.10
2023-01-11T11:46:07.151Z,11.10
2023-01-11T11:48:37.590Z,11.10
2023-01-11T11:51:07.259Z,11.10
2023-01-11T11:53:45.419Z,11.10
2023-01-11T11:56:29.634Z,11.00
2023-01-11T11:58:58.502Z,11.00
2023-01-11T12:01:25.121Z,10.90
2023-01-11T12:03:56.655Z,10.90
2023-01-11T12:06:27.150Z,10.90
2023-01-11T12:09:01.408Z,10.90
2023-01-11T12:11:35.648Z,10.90
2023-01-11T12:14:13.588Z,10.90
2023-01-11T12:16:42.009Z,10.90
2023-01-11T12:19:47.110Z,10.90
2023-01-11T12:22:27.201Z,10.80
2023-01-11T12:31:50.418Z,10.80
2023-01-11T12:34:45.270Z,10.80
2023-01-11T12:37:55.685Z,10.80
2023-01-11T12:46:22.875Z,10.80
2023-01-11T12:49:01.217Z,10.90
2023-01-11T12:52:21.333Z,10.80
2023-01-11T12:55:06.035Z,10.90
2023-01-11T12:58:07.118Z,10.90
2023-01-11T13:00:55.512Z,10.80
2023-01-11T13:04:00.899Z,10.80
2023-01-11T13:06:43.753Z,10.80
2023-01-11T13:09:14.386Z,10.70
2023-01-11T13:12:15.321Z,10.70
2023-01-11T13:15:00.606Z,10.70
2023-01-11T13:17:34.697Z,10.60
2023-01-11T13:20:27.669Z,10.60
2023-01-11T13:23:18.392Z,10.60
2023-01-11T13:25:50.655Z,10.60
2023-01-11T13:29:13.386Z,10.60
2023-01-11T13:31:42.875Z,10.50
2023-01-11T13:34:17.119Z,10.60
2023-01-11T13:39:47.180Z,10.60
2023-01-11T13:42:22.045Z,10.60
2023-01-11T13:45:12.889Z,10.60
2023-01-11T13:47:52.537Z,10.60
2023-01-11T13:50:44.192Z,10.60
2023-01-11T13:53:13.852Z,10.60
2023-01-11T13:55:54.262Z,10.60
2023-01-11T13:58:35.603Z,10.60
2023-01-11T14:15:37.143Z,10.50
2023-01-11T14:18:17.862Z,10.50
2023-01-11T14:21:14.958Z,10.50
2023-01-11T14:23:54.253Z,10.50
2023-01-11T14:26:37.391Z,10.50
2023-01-11T14:29:14.756Z,10.50
2023-01-11T14:31:54.520Z,10.60
2023-01-11T14:34:21.118Z,10.60
2023-01-11T14:37:23.777Z,10.50
2023-01-11T14:40:27.086Z,10.60
2023-01-11T14:43:25.378Z,10.50
2023-01-11T14:46:37.378Z,10.50
2023-01-11T14:49:12.707Z,10.50
2023-01-11T14:52:03.430Z,10.50
2023-01-11T14:54:45.432Z,10.50
2023-01-11T14:57:36.497Z,10.50
2023-01-11T15:00:19.429Z,10.50
2023-01-11T15:02:50.515Z,10.50
2023-01-11T15:05:30.130Z,10.40
2023-01-11T15:08:23.440Z,10.40
2023-01-11T15:10:59.125Z,10.40
2023-01-11T15:13:56.641Z,10.40
2023-01-11T15:16:48.900Z,10.40
2023-01-11T15:19:33.891Z,10.40
2023-01-11T15:22:03.344Z,10.40
2023-01-11T15:24:35.817Z,10.40
2023-01-11T15:27:02.831Z,10.40
2023-01-11T15:29:40.259Z,10.40
2023-01-11T15:32:26.069Z,10.40
2023-01-11T15:34:53.504Z,10.30
2023-01-11T15:37:29.032Z,10.30
2023-01-11T15:40:09.708Z,10.30
2023-01-11T15:42:57.883Z,10.20
2023-01-11T15:46:01.870Z,10.20
2023-01-11T15:49:13.275Z,10.20
2023-01-11T15:52:01.591Z,10.20
2023-01-11T15:55:00.470Z,10.10
2023-01-11T15:58:05.433Z,10.10
2023-01-11T16:01:03.112Z,10.10
2023-01-11T16:03:53.586Z,10.00
2023-01-11T16:06:39.982Z,10.00
2023-01-11T16:09:18.057Z,10.00
2023-01-11T16:12:13.051Z,10.00
2023-01-11T16:14:56.116Z,9.90
2023-01-11T16:17:24.437Z,9.90
2023-01-11T16:19:55.952Z,9.90
2023-01-11T16:22:26.321Z,9.90
2023-01-11T16:25:00.637Z,9.90
2023-01-11T16:27:36.104Z,9.80
2023-01-11T16:30:14.123Z,9.70
2023-01-11T16:32:40.736Z,9.70
2023-01-11T16:35:37.681Z,9.70
2023-01-11T16:38:11.561Z,9.70
2023-01-11T16:40:44.119Z,9.70
2023-01-11T16:43:27.164Z,9.70
2023-01-11T16:45:58.426Z,9.70
2023-01-11T16:48:29.124Z,9.70
2023-01-11T16:51:15.764Z,9.70
2023-01-11T16:53:52.240Z,9.70
2023-01-11T16:56:23.405Z,9.70
2023-01-11T16:59:15.221Z,9.70
2023-01-11T17:01:51.309Z,9.60
2023-01-11T17:04:32.694Z,9.60
2023-01-11T17:07:20.766Z,9.50
2023-01-11T17:09:47.607Z,9.40
2023-01-11T17:12:25.645Z,9.30
2023-01-11T17:15:34.635Z,9.30
2023-01-11T17:18:07.371Z,9.20
2023-01-11T17:20:38.434Z,9.20
2023-01-11T17:23:18.429Z,9.10
2023-01-11T17:25:58.343Z,9.10
2023-01-11T17:28:31.099Z,9.10
2023-01-11T17:31:00.422Z,9.10
2023-01-11T17:33:33.011Z,9.00
2023-01-11T17:36:01.897Z,9.00
2023-01-11T17:38:29.640Z,9.00
2023-01-11T17:41:29.551Z,8.90
2023-01-11T17:44:18.286Z,8.90
2023-01-11T17:50:54.044Z,8.90
2023-01-11T17:53:26.484Z,8.90
2023-01-11T17:55:54.544Z,8.80
2023-01-11T17:58:22.670Z,8.80
2023-01-11T18:01:06.908Z,8.80
2023-01-11T18:03:46.846Z,8.70
2023-01-11T18:06:26.539Z,8.70
2023-01-11T18:08:57.429Z,8.70
2023-01-11T18:11:35.165Z,8.70
2023-01-11T18:14:07.464Z,8.60
2023-01-11T18:17:00.446Z,8.60
2023-01-11T18:19:39.263Z,8.50
2023-01-11T18:22:36.348Z,8.50
2023-01-11T18:25:25.467Z,8.40
2023-01-11T18:28:35.751Z,8.40
2023-01-11T18:31:04.987Z,8.30
2023-01-11T18:33:38.772Z,8.30
2023-01-11T18:36:19.248Z,8.30
2023-01-11T18:38:48.120Z,8.20
2023-01-11T18:41:38.400Z,8.20
2023-01-11T18:44:05.584Z,8.20
2023-01-11T18:46:52.381Z,8.20
2023-01-11T18:55:30.783Z,8.10
2023-01-11T18:57:58.524Z,8.10
2023-01-11T19:00:25.373Z,8.20
2023-01-11T19:02:54.824Z,8.20
2023-01-11T19:05:21.636Z,8.30
2023-01-11T19:07:51.370Z,8.30
2023-01-11T19:10:20.352Z,8.30
2023-01-11T19:12:49.653Z,8.30
2023-01-11T19:15:16.953Z,8.40
2023-01-11T19:17:45.815Z,8.50
2023-01-11T19:20:15.296Z,8.50
2023-01-11T19:22:41.965Z,8.50
2023-01-11T19:25:11.225Z,8.60
2023-01-11T19:27:40.353Z,8.60
2023-01-11T19:30:08.971Z,8.50
2023-01-11T19:32:35.777Z,8.50
2023-01-11T19:35:08.288Z,8.50
2023-01-11T19:37:36.981Z,8.50
2023-01-11T19:40:08.724Z,8.50
2023-01-11T19:42:39.115Z,8.50
2023-01-11T19:45:07.656Z,8.50
2023-01-11T19:47:35.360Z,8.40
2023-01-11T19:50:02.089Z,8.30
2023-01-11T19:52:30.195Z,8.30
2023-01-11T19:54:59.060Z,8.30
2023-01-11T19:57:28.079Z,8.30
2023-01-11T19:59:59.613Z,8.30
2023-01-11T20:02:32.442Z,8.30
2023-01-11T20:04:59.636Z,8.30
2023-01-11T20:07:26.517Z,8.30
2023-01-11T20:09:53.258Z,8.30
2023-01-11T20:12:22.075Z,8.40
2023-01-11T20:14:54.950Z,8.40
2023-01-11T20:17:24.471Z,8.40
2023-01-11T20:19:53.866Z,8.50
2023-01-11T20:22:27.970Z,8.50
2023-01-11T20:25:01.537Z,8.50
2023-01-11T20:27:28.275Z,8.50
2023-01-11T20:29:55.231Z,8.50
2023-01-11T20:32:40.748Z,8.50
2023-01-11T20:35:08.579Z,8.50
2023-01-11T20:37:38.130Z,8.50
2023-01-11T20:40:05.884Z,8.50
2023-01-11T20:42:33.466Z,8.40
2023-01-11T20:45:00.076Z,8.40
2023-01-11T20:47:29.189Z,8.40
2023-01-11T20:49:56.003Z,8.50
2023-01-11T20:52:23.129Z,8.50
2023-01-11T20:54:56.733Z,8.50
2023-01-11T20:57:28.592Z,8.40
2023-01-11T20:59:58.075Z,8.40
2023-01-11T21:02:29.685Z,8.50
2023-01-11T21:04:56.459Z,8.50
2023-01-11T21:07:23.132Z,8.50
2023-01-11T21:09:54.431Z,8.50
2023-01-11T21:12:21.275Z,8.50
2023-01-11T21:14:53.645Z,8.50
2023-01-11T21:17:26.879Z,8.40
2023-01-11T21:19:55.554Z,8.40
2023-01-11T21:22:24.686Z,8.40
2023-01-11T21:24:51.264Z,8.40
2023-01-11T21:27:22.635Z,8.40
2023-01-11T21:32:53.937Z,8.40
2023-01-11T21:35:21.615Z,8.30
2023-01-11T21:37:50.491Z,8.40
2023-01-11T21:40:19.738Z,8.40
2023-01-11T21:42:46.457Z,8.40
2023-01-11T21:45:13.414Z,8.30
2023-01-11T21:47:43.732Z,8.30
2023-01-11T21:50:14.166Z,8.40
2023-01-11T21:52:40.795Z,8.40
2023-01-11T21:55:10.279Z,8.40
2023-01-11T21:57:41.311Z,8.40
2023-01-11T22:00:10.158Z,8.40
2023-01-11T22:02:41.203Z,8.30
2023-01-11T22:05:08.461Z,8.30
2023-01-11T22:07:37.530Z,8.30
2023-01-11T22:10:05.578Z,8.20
2023-01-11T22:12:35.415Z,8.20
2023-01-11T22:15:12.420Z,8.20
2023-01-11T22:17:45.026Z,8.20
2023-01-11T22:20:14.589Z,8.20
2023-01-11T22:22:46.914Z,8.30
2023-01-11T22:25:16.646Z,8.20
2023-01-11T22:27:47.084Z,8.10
2023-01-11T22:30:16.107Z,8.20
2023-01-11T22:32:46.949Z,8.20
2023-01-11T22:35:13.865Z,8.20
2023-01-11T22:37:43.323Z,8.20
2023-01-11T22:40:10.726Z,8.10
2023-01-11T22:42:42.072Z,8.10
2023-01-11T22:45:09.656Z,8.10
2023-01-11T22:47:36.324Z,8.10
2023-01-11T22:50:04.293Z,8.10
2023-01-11T22:52:39.139Z,8.20
2023-01-11T22:55:15.426Z,8.20
2023-01-11T22:57:42.229Z,8.20
2023-01-11T23:00:10.980Z,8.10
2023-01-11T23:02:38.088Z,8.10
2023-01-11T23:05:05.112Z,8.10
2023-01-11T23:07:31.887Z,8.10
2023-01-11T23:09:59.472Z,8.10
2023-01-11T23:12:45.585Z,8.10
2023-01-11T23:15:14.179Z,8.20
2023-01-11T23:17:44.621Z,8.10
2023-01-11T23:20:13.909Z,8.20
2023-01-11T23:22:50.065Z,8.30
2023-01-11T23:25:23.414Z,8.40
2023-01-11T23:27:51.072Z,8.40
2023-01-11T23:30:18.232Z,8.50
2023-01-11T23:32:48.278Z,8.50
2023-01-11T23:35:14.880Z,8.50
2023-01-11T23:37:41.652Z,8.60
2023-01-11T23:40:09.395Z,8.50
2023-01-11T23:42:37.669Z,8.50
2023-01-11T23:45:07.693Z,8.60
2023-01-11T23:47:38.128Z,8.60
2023-01-11T23:50:05.522Z,8.70
2023-01-11T23:52:32.446Z,8.70
2023-01-11T23:55:04.134Z,8.80
2023-01-11T23:57:34.699Z,8.90
